PWSweather.com
Personal Weather Stations
Station Observations
FALLO12
Churchill County, Fallon, NV 89406

Churchill CountyFallon, NV 89406

Lat: 39.51, Lon: -118.7617

Elevation: 3957

Station Type: WS-2080

http://webpages.charter.net/cgvad1/

High Low Average
Temperature 96.1°F35.6°C 68.4°F20.2°C 81.7°F27.6°C
Dew Point 56.2°F13.4°C 41.1°F5.1°C 50.6°F10.3°C
Winds 16.8 mph 27.0 kmh Calm Calm 4.0 mph SE6.4 kmh SE
Wind Gusts 25.1 mph40.4 kmh -- 8.0 mph12.9 kmh
Humidity 56% 16% 36%
Pressure 30.06 in1017.9 mb 29.98 in1015.2 mb -
Precipitation 0.00 in0.0 mm - -
Hour Temp Dew Point Humidity Winds Wind Gusts Pressure Precip Precip Rate Daily Precip Total
12:00 AM 74.7°F23.7°C 53.7°F12.1°C 48% 4.5 mph S7.2 kmh S 9.8 mph15.8 kmh 30.04 in1017.3 mb 0.00 in0.0 mm 0.00 in/hr0.0 mm/hr 0.00 in0.0 mm
12:10 AM 74.3°F23.5°C 53.4°F11.9°C 48% 3.8 mph SW6.1 kmh SW 7.6 mph12.2 kmh 30.04 in1017.3 mb 0.00 in0.0 mm 0.00 in/hr0.0 mm/hr 0.00 in0.0 mm
12:20 AM 74.3°F23.5°C 53.4°F11.9°C 48% 6.0 mph SSW9.7 kmh SSW 8.3 mph13.4 kmh 30.04 in1017.3 mb 0.00 in0.0 mm 0.00 in/hr0.0 mm/hr 0.00 in0.0 mm
12:30 AM 74.5°F23.6°C 53.5°F11.9°C 48% 3.1 mph SSW5.0 kmh SSW 7.6 mph12.2 kmh 30.04 in1017.3 mb 0.00 in0.0 mm 0.00 in/hr0.0 mm/hr 0.00 in0.0 mm
12:40 AM 74.1°F23.4°C 53.2°F11.8°C 48% 2.2 mph SSW3.5 kmh SSW 6.9 mph11.1 kmh 30.04 in1017.3 mb 0.00 in0.0 mm 0.00 in/hr0.0 mm/hr 0.00 in0.0 mm
12:50 AM 73.6°F23.1°C 53.3°F11.8°C 49% 2.2 mph SSW3.5 kmh SSW 5.4 mph8.7 kmh 30.04 in1017.3 mb 0.00 in0.0 mm 0.00 in/hr0.0 mm/hr 0.00 in0.0 mm
01:00 AM 73.4°F23.0°C 53.1°F11.7°C 49% 2.2 mph SSW3.5 kmh SSW 5.4 mph8.7 kmh 30.04 in1017.3 mb 0.00 in0.0 mm 0.00 in/hr0.0 mm/hr 0.00 in0.0 mm
01:10 AM 72.9°F22.7°C 53.7°F12.1°C 51% 1.6 mph SW2.6 kmh SW 3.1 mph5.0 kmh 30.04 in1017.3 mb 0.00 in0.0 mm 0.00 in/hr0.0 mm/hr 0.00 in0.0 mm
01:20 AM 72.1°F22.3°C 53.0°F11.7°C 51% 2.2 mph S3.5 kmh S 4.5 mph7.2 kmh 30.04 in1017.3 mb 0.00 in0.0 mm 0.00 in/hr0.0 mm/hr 0.00 in0.0 mm
01:30 AM 71.8°F22.1°C 52.7°F11.5°C 51% 2.2 mph S3.5 kmh S 3.8 mph6.1 kmh 30.04 in1017.3 mb 0.00 in0.0 mm 0.00 in/hr0.0 mm/hr 0.00 in0.0 mm
01:40 AM 71.8°F22.1°C 52.7°F11.5°C 51% 3.1 mph S5.0 kmh S 4.5 mph7.2 kmh 30.04 in1017.3 mb 0.00 in0.0 mm 0.00 in/hr0.0 mm/hr 0.00 in0.0 mm
01:50 AM 72.0°F22.2°C 52.9°F11.6°C 51% 4.5 mph S7.2 kmh S 7.6 mph12.2 kmh 30.04 in1017.3 mb 0.00 in0.0 mm 0.00 in/hr0.0 mm/hr 0.00 in0.0 mm
02:00 AM 72.5°F22.5°C 53.4°F11.9°C 51% 6.0 mph S9.7 kmh S 8.3 mph13.4 kmh 30.04 in1017.3 mb 0.00 in0.0 mm 0.00 in/hr0.0 mm/hr 0.00 in0.0 mm
02:10 AM 72.3°F22.4°C 53.2°F11.8°C 51% 2.2 mph S3.5 kmh S 7.6 mph12.2 kmh 30.04 in1017.3 mb 0.00 in0.0 mm 0.00 in/hr0.0 mm/hr 0.00 in0.0 mm
02:20 AM 72.1°F22.3°C 53.0°F11.7°C 51% 3.1 mph SSW5.0 kmh SSW 8.3 mph13.4 kmh 30.04 in1017.3 mb 0.00 in0.0 mm 0.00 in/hr0.0 mm/hr 0.00 in0.0 mm
02:30 AM 72.1°F22.3°C 53.6°F12.0°C 52% 3.8 mph S6.1 kmh S 7.6 mph12.2 kmh 30.04 in1017.3 mb 0.00 in0.0 mm 0.00 in/hr0.0 mm/hr 0.00 in0.0 mm
02:40 AM 72.0°F22.2°C 53.4°F11.9°C 52% 3.8 mph S6.1 kmh S 7.6 mph12.2 kmh 30.04 in1017.3 mb 0.00 in0.0 mm 0.00 in/hr0.0 mm/hr 0.00 in0.0 mm
02:50 AM 72.0°F22.2°C 53.4°F11.9°C 52% 3.8 mph S6.1 kmh S 7.6 mph12.2 kmh 30.04 in1017.3 mb 0.00 in0.0 mm 0.00 in/hr0.0 mm/hr 0.00 in0.0 mm
03:00 AM 71.8°F22.1°C 53.2°F11.8°C 52% 5.4 mph S8.7 kmh S 9.2 mph14.8 kmh 30.04 in1017.3 mb 0.00 in0.0 mm 0.00 in/hr0.0 mm/hr 0.00 in0.0 mm
03:10 AM 71.6°F22.0°C 53.1°F11.7°C 52% 5.4 mph S8.7 kmh S 9.2 mph14.8 kmh 30.04 in1017.3 mb 0.00 in0.0 mm 0.00 in/hr0.0 mm/hr 0.00 in0.0 mm
03:20 AM 71.6°F22.0°C 53.1°F11.7°C 52% 3.1 mph S5.0 kmh S 7.6 mph12.2 kmh 30.04 in1017.3 mb 0.00 in0.0 mm 0.00 in/hr0.0 mm/hr 0.00 in0.0 mm
03:30 AM 71.2°F21.8°C 53.3°F11.8°C 53% 3.8 mph S6.1 kmh S 7.6 mph12.2 kmh 30.04 in1017.3 mb 0.00 in0.0 mm 0.00 in/hr0.0 mm/hr 0.00 in0.0 mm
03:40 AM 70.9°F21.6°C 53.4°F11.9°C 54% 3.1 mph S5.0 kmh S 6.0 mph9.7 kmh 30.04 in1017.3 mb 0.00 in0.0 mm 0.00 in/hr0.0 mm/hr 0.00 in0.0 mm
03:50 AM 70.5°F21.4°C 53.6°F12.0°C 55% 3.8 mph SSW6.1 kmh SSW 6.9 mph11.1 kmh 30.04 in1017.3 mb 0.00 in0.0 mm 0.00 in/hr0.0 mm/hr 0.00 in0.0 mm
04:00 AM 70.3°F21.3°C 53.4°F11.9°C 55% 3.8 mph S6.1 kmh S 6.0 mph9.7 kmh 30.04 in1017.3 mb 0.00 in0.0 mm 0.00 in/hr0.0 mm/hr 0.00 in0.0 mm
04:10 AM 70.2°F21.2°C 53.3°F11.8°C 55% 3.8 mph S6.1 kmh S 7.6 mph12.2 kmh 30.04 in1017.3 mb 0.00 in0.0 mm 0.00 in/hr0.0 mm/hr 0.00 in0.0 mm
04:20 AM 70.3°F21.3°C 52.9°F11.6°C 54% 3.8 mph S6.1 kmh S 6.9 mph11.1 kmh 30.04 in1017.3 mb 0.00 in0.0 mm 0.00 in/hr0.0 mm/hr 0.00 in0.0 mm
04:30 AM 70.3°F21.3°C 52.9°F11.6°C 54% 3.8 mph S6.1 kmh S 6.9 mph11.1 kmh 30.04 in1017.3 mb 0.00 in0.0 mm 0.00 in/hr0.0 mm/hr 0.00 in0.0 mm
04:40 AM 70.3°F21.3°C 52.4°F11.3°C 53% 3.8 mph S6.1 kmh S 6.9 mph11.1 kmh 30.04 in1017.3 mb 0.00 in0.0 mm 0.00 in/hr0.0 mm/hr 0.00 in0.0 mm
04:50 AM 70.3°F21.3°C 52.4°F11.3°C 53% 2.2 mph SSW3.5 kmh SSW 6.0 mph9.7 kmh 30.04 in1017.3 mb 0.00 in0.0 mm 0.00 in/hr0.0 mm/hr 0.00 in0.0 mm
05:00 AM 70.0°F21.1°C 52.1°F11.2°C 53% 0.7 mph S1.1 kmh S 4.5 mph7.2 kmh 30.04 in1017.3 mb 0.00 in0.0 mm 0.00 in/hr0.0 mm/hr 0.00 in0.0 mm
05:10 AM 69.6°F20.9°C 52.3°F11.3°C 54% 1.6 mph S2.6 kmh S 3.1 mph5.0 kmh 30.04 in1017.3 mb 0.00 in0.0 mm 0.00 in/hr0.0 mm/hr 0.00 in0.0 mm
05:20 AM 68.7°F20.4°C 51.9°F11.1°C 55% 1.6 mph SW2.6 kmh SW 3.1 mph5.0 kmh 30.04 in1017.3 mb 0.00 in0.0 mm 0.00 in/hr0.0 mm/hr 0.00 in0.0 mm
05:30 AM 68.4°F20.2°C 51.6°F10.9°C 55% 1.6 mph S2.6 kmh S 3.8 mph6.1 kmh 30.04 in1017.3 mb 0.00 in0.0 mm 0.00 in/hr0.0 mm/hr 0.00 in0.0 mm
05:40 AM 68.4°F20.2°C 52.1°F11.2°C 56% 2.2 mph S3.5 kmh S 3.8 mph6.1 kmh 30.05 in1017.6 mb 0.00 in0.0 mm 0.00 in/hr0.0 mm/hr 0.00 in0.0 mm
05:50 AM 68.7°F20.4°C 51.9°F11.1°C 55% 2.2 mph SSW3.5 kmh SSW 6.0 mph9.7 kmh 30.05 in1017.6 mb 0.00 in0.0 mm 0.00 in/hr0.0 mm/hr 0.00 in0.0 mm
06:00 AM 68.7°F20.4°C 51.9°F11.1°C 55% 2.2 mph SSW3.5 kmh SSW 5.4 mph8.7 kmh 30.05 in1017.6 mb 0.00 in0.0 mm 0.00 in/hr0.0 mm/hr 0.00 in0.0 mm
06:10 AM 68.9°F20.5°C 52.1°F11.2°C 55% 3.8 mph SW6.1 kmh SW 6.0 mph9.7 kmh 30.05 in1017.6 mb 0.00 in0.0 mm 0.00 in/hr0.0 mm/hr 0.00 in0.0 mm
06:20 AM 69.1°F20.6°C 51.8°F11.0°C 54% 2.2 mph S3.5 kmh S 6.0 mph9.7 kmh 30.05 in1017.6 mb 0.00 in0.0 mm 0.00 in/hr0.0 mm/hr 0.00 in0.0 mm
06:30 AM 69.3°F20.7°C 51.9°F11.1°C 54% 1.6 mph S2.6 kmh S 5.4 mph8.7 kmh 30.06 in1017.9 mb 0.00 in0.0 mm 0.00 in/hr0.0 mm/hr 0.00 in0.0 mm
06:40 AM 69.3°F20.7°C 52.4°F11.3°C 55% 1.6 mph S2.6 kmh S 5.4 mph8.7 kmh 30.05 in1017.6 mb 0.00 in0.0 mm 0.00 in/hr0.0 mm/hr 0.00 in0.0 mm
06:50 AM 69.1°F20.6°C 52.3°F11.3°C 55% 2.2 mph S3.5 kmh S 5.4 mph8.7 kmh 30.05 in1017.6 mb 0.00 in0.0 mm 0.00 in/hr0.0 mm/hr 0.00 in0.0 mm
07:00 AM 69.4°F20.8°C 53.1°F11.7°C 56% 3.1 mph S5.0 kmh S 6.9 mph11.1 kmh 30.05 in1017.6 mb 0.00 in0.0 mm 0.00 in/hr0.0 mm/hr 0.00 in0.0 mm
07:10 AM 69.8°F21.0°C 52.9°F11.6°C 55% 3.1 mph S5.0 kmh S 5.4 mph8.7 kmh 30.06 in1017.9 mb 0.00 in0.0 mm 0.00 in/hr0.0 mm/hr 0.00 in0.0 mm
07:20 AM 71.6°F22.0°C 53.6°F12.0°C 53% 3.1 mph SSW5.0 kmh SSW 5.4 mph8.7 kmh 30.06 in1017.9 mb 0.00 in0.0 mm 0.00 in/hr0.0 mm/hr 0.00 in0.0 mm
07:30 AM 73.8°F23.2°C 54.5°F12.5°C 51% 3.8 mph SSW6.1 kmh SSW 6.0 mph9.7 kmh 30.06 in1017.9 mb 0.00 in0.0 mm 0.00 in/hr0.0 mm/hr 0.00 in0.0 mm
07:40 AM 74.7°F23.7°C 54.3°F12.4°C 49% 3.8 mph SW6.1 kmh SW 7.6 mph12.2 kmh 30.05 in1017.6 mb 0.00 in0.0 mm 0.00 in/hr0.0 mm/hr 0.00 in0.0 mm
07:50 AM 74.8°F23.8°C 54.4°F12.4°C 49% 5.4 mph S8.7 kmh S 7.6 mph12.2 kmh 30.06 in1017.9 mb 0.00 in0.0 mm 0.00 in/hr0.0 mm/hr 0.00 in0.0 mm
08:00 AM 75.4°F24.1°C 53.8°F12.1°C 47% 3.1 mph SSW5.0 kmh SSW 6.9 mph11.1 kmh 30.06 in1017.9 mb 0.00 in0.0 mm 0.00 in/hr0.0 mm/hr 0.00 in0.0 mm
08:10 AM 76.5°F24.7°C 54.8°F12.7°C 47% 3.1 mph S5.0 kmh S 6.9 mph11.1 kmh 30.06 in1017.9 mb 0.00 in0.0 mm 0.00 in/hr0.0 mm/hr 0.00 in0.0 mm
08:20 AM 77.5°F25.3°C 53.9°F12.2°C 44% 4.5 mph S7.2 kmh S 7.6 mph12.2 kmh 30.06 in1017.9 mb 0.00 in0.0 mm 0.00 in/hr0.0 mm/hr 0.00 in0.0 mm
08:30 AM 78.4°F25.8°C 55.4°F13.0°C 45% 5.4 mph S8.7 kmh S 6.9 mph11.1 kmh 30.06 in1017.9 mb 0.00 in0.0 mm 0.00 in/hr0.0 mm/hr 0.00 in0.0 mm
08:40 AM 78.3°F25.7°C 54.6°F12.6°C 44% 4.5 mph SSE7.2 kmh SSE 6.9 mph11.1 kmh 30.06 in1017.9 mb 0.00 in0.0 mm 0.00 in/hr0.0 mm/hr 0.00 in0.0 mm
08:50 AM 78.1°F25.6°C 54.4°F12.4°C 44% 3.8 mph S6.1 kmh S 6.0 mph9.7 kmh 30.06 in1017.9 mb 0.00 in0.0 mm 0.00 in/hr0.0 mm/hr 0.00 in0.0 mm
09:00 AM 78.4°F25.8°C 54.1°F12.3°C 43% 5.4 mph S8.7 kmh S 6.9 mph11.1 kmh 30.06 in1017.9 mb 0.00 in0.0 mm 0.00 in/hr0.0 mm/hr 0.00 in0.0 mm
09:10 AM 78.4°F25.8°C 54.8°F12.7°C 44% 0.7 mph S1.1 kmh S 6.9 mph11.1 kmh 30.06 in1017.9 mb 0.00 in0.0 mm 0.00 in/hr0.0 mm/hr 0.00 in0.0 mm
09:20 AM 78.8°F26.0°C 55.1°F12.8°C 44% 3.8 mph SSE6.1 kmh SSE 5.4 mph8.7 kmh 30.06 in1017.9 mb 0.00 in0.0 mm 0.00 in/hr0.0 mm/hr 0.00 in0.0 mm
09:30 AM 78.8°F26.0°C 55.1°F12.8°C 44% 4.5 mph SE7.2 kmh SE 6.9 mph11.1 kmh 30.06 in1017.9 mb 0.00 in0.0 mm 0.00 in/hr0.0 mm/hr 0.00 in0.0 mm
09:40 AM 79.3°F26.3°C 56.2°F13.4°C 45% 3.8 mph SE6.1 kmh SE 5.4 mph8.7 kmh 30.06 in1017.9 mb 0.00 in0.0 mm 0.00 in/hr0.0 mm/hr 0.00 in0.0 mm
09:50 AM 80.1°F26.7°C 55.6°F13.1°C 43% 3.1 mph SE5.0 kmh SE 6.0 mph9.7 kmh 30.06 in1017.9 mb 0.00 in0.0 mm 0.00 in/hr0.0 mm/hr 0.00 in0.0 mm
10:00 AM 81.7°F27.6°C 55.7°F13.2°C 41% 4.5 mph SE7.2 kmh SE 6.9 mph11.1 kmh 30.06 in1017.9 mb 0.00 in0.0 mm 0.00 in/hr0.0 mm/hr 0.00 in0.0 mm
10:10 AM 83.8°F28.8°C 54.1°F12.3°C 36% 3.1 mph S5.0 kmh S 6.9 mph11.1 kmh 30.06 in1017.9 mb 0.00 in0.0 mm 0.00 in/hr0.0 mm/hr 0.00 in0.0 mm
10:20 AM 85.3°F29.6°C 53.8°F12.1°C 34% 4.5 mph SE7.2 kmh SE 6.0 mph9.7 kmh 30.06 in1017.9 mb 0.00 in0.0 mm 0.00 in/hr0.0 mm/hr 0.00 in0.0 mm
10:30 AM 86.7°F30.4°C 52.5°F11.4°C 31% 3.8 mph SE6.1 kmh SE 6.9 mph11.1 kmh 30.06 in1017.9 mb 0.00 in0.0 mm 0.00 in/hr0.0 mm/hr 0.00 in0.0 mm
10:40 AM 88.3°F31.3°C 48.1°F8.9°C 25% 2.2 mph SE3.5 kmh SE 5.4 mph8.7 kmh 30.06 in1017.9 mb 0.00 in0.0 mm 0.00 in/hr0.0 mm/hr 0.00 in0.0 mm
10:50 AM 89.8°F32.1°C 48.2°F9.0°C 24% 2.2 mph SE3.5 kmh SE 5.4 mph8.7 kmh 30.06 in1017.9 mb 0.00 in0.0 mm 0.00 in/hr0.0 mm/hr 0.00 in0.0 mm
11:00 AM 90.3°F32.4°C 46.4°F8.0°C 22% 1.6 mph NE2.6 kmh NE 7.6 mph12.2 kmh 30.06 in1017.9 mb 0.00 in0.0 mm 0.00 in/hr0.0 mm/hr 0.00 in0.0 mm
11:10 AM 91.0°F32.8°C 47.0°F8.3°C 22% 3.8 mph ESE6.1 kmh ESE 5.4 mph8.7 kmh 30.06 in1017.9 mb 0.00 in0.0 mm 0.00 in/hr0.0 mm/hr 0.00 in0.0 mm
11:20 AM 91.6°F33.1°C 50.8°F10.4°C 25% 3.1 mph E5.0 kmh E 5.4 mph8.7 kmh 30.06 in1017.9 mb 0.00 in0.0 mm 0.00 in/hr0.0 mm/hr 0.00 in0.0 mm
11:30 AM 91.4°F33.0°C 50.7°F10.4°C 25% 4.5 mph ESE7.2 kmh ESE 6.9 mph11.1 kmh 30.06 in1017.9 mb 0.00 in0.0 mm 0.00 in/hr0.0 mm/hr 0.00 in0.0 mm
11:40 AM 91.8°F33.2°C 51.0°F10.6°C 25% 2.2 mph ESE3.5 kmh ESE 9.8 mph15.8 kmh 30.06 in1017.9 mb 0.00 in0.0 mm 0.00 in/hr0.0 mm/hr 0.00 in0.0 mm
11:50 AM 90.9°F32.7°C 45.6°F7.6°C 21% 3.1 mph E5.0 kmh E 7.6 mph12.2 kmh 30.06 in1017.9 mb 0.00 in0.0 mm 0.00 in/hr0.0 mm/hr 0.00 in0.0 mm
12:00 PM 89.8°F32.1°C 44.7°F7.1°C 21% 3.1 mph E5.0 kmh E 6.9 mph11.1 kmh 30.06 in1017.9 mb 0.00 in0.0 mm 0.00 in/hr0.0 mm/hr 0.00 in0.0 mm
12:10 PM 88.9°F31.6°C 50.6°F10.3°C 27% 6.9 mph SE11.1 kmh SE 9.8 mph15.8 kmh 30.06 in1017.9 mb 0.00 in0.0 mm 0.00 in/hr0.0 mm/hr 0.00 in0.0 mm
12:20 PM 88.2°F31.2°C 50.0°F10.0°C 27% 6.9 mph ESE11.1 kmh ESE 11.4 mph18.3 kmh 30.06 in1017.9 mb 0.00 in0.0 mm 0.00 in/hr0.0 mm/hr 0.00 in0.0 mm
12:30 PM 90.7°F32.6°C 47.9°F8.8°C 23% 5.4 mph SE8.7 kmh SE 9.8 mph15.8 kmh 30.06 in1017.9 mb 0.00 in0.0 mm 0.00 in/hr0.0 mm/hr 0.00 in0.0 mm
12:40 PM 92.5°F33.6°C 52.7°F11.5°C 26% 6.0 mph ESE9.7 kmh ESE 13.6 mph21.9 kmh 30.05 in1017.6 mb 0.00 in0.0 mm 0.00 in/hr0.0 mm/hr 0.00 in0.0 mm
12:50 PM 90.9°F32.7°C 50.2°F10.1°C 25% 6.0 mph SE9.7 kmh SE 11.4 mph18.3 kmh 30.05 in1017.6 mb 0.00 in0.0 mm 0.00 in/hr0.0 mm/hr 0.00 in0.0 mm
01:00 PM 91.9°F33.3°C 52.2°F11.2°C 26% 5.4 mph E8.7 kmh E 10.7 mph17.2 kmh 30.05 in1017.6 mb 0.00 in0.0 mm 0.00 in/hr0.0 mm/hr 0.00 in0.0 mm
01:10 PM 92.3°F33.5°C 51.5°F10.8°C 25% 6.0 mph ESE9.7 kmh ESE 9.2 mph14.8 kmh 30.05 in1017.6 mb 0.00 in0.0 mm 0.00 in/hr0.0 mm/hr 0.00 in0.0 mm
01:20 PM 92.7°F33.7°C 51.8°F11.0°C 25% 7.6 mph E12.2 kmh E 9.8 mph15.8 kmh 30.05 in1017.6 mb 0.00 in0.0 mm 0.00 in/hr0.0 mm/hr 0.00 in0.0 mm
01:30 PM 92.5°F33.6°C 51.6°F10.9°C 25% 4.5 mph SE7.2 kmh SE 12.1 mph19.5 kmh 30.04 in1017.3 mb 0.00 in0.0 mm 0.00 in/hr0.0 mm/hr 0.00 in0.0 mm
01:40 PM 93.0°F33.9°C 52.1°F11.2°C 25% 0.7 mph E1.1 kmh E 12.1 mph19.5 kmh 30.04 in1017.3 mb 0.00 in0.0 mm 0.00 in/hr0.0 mm/hr 0.00 in0.0 mm
01:50 PM 93.0°F33.9°C 52.1°F11.2°C 25% 6.0 mph ESE9.7 kmh ESE 9.2 mph14.8 kmh 30.04 in1017.3 mb 0.00 in0.0 mm 0.00 in/hr0.0 mm/hr 0.00 in0.0 mm
02:00 PM 93.9°F34.4°C 51.7°F10.9°C 24% 5.4 mph E8.7 kmh E 7.6 mph12.2 kmh 30.04 in1017.3 mb 0.00 in0.0 mm 0.00 in/hr0.0 mm/hr 0.00 in0.0 mm
02:10 PM 93.6°F34.2°C 51.4°F10.8°C 24% 3.8 mph SW6.1 kmh SW 6.9 mph11.1 kmh 30.03 in1016.9 mb 0.00 in0.0 mm 0.00 in/hr0.0 mm/hr 0.00 in0.0 mm
02:20 PM 94.3°F34.6°C 52.0°F11.1°C 24% 1.6 mph SSE2.6 kmh SSE 6.0 mph9.7 kmh 30.03 in1016.9 mb 0.00 in0.0 mm 0.00 in/hr0.0 mm/hr 0.00 in0.0 mm
02:30 PM 94.1°F34.5°C 47.0°F8.3°C 20% 3.8 mph SSE6.1 kmh SSE 9.8 mph15.8 kmh 30.03 in1016.9 mb 0.00 in0.0 mm 0.00 in/hr0.0 mm/hr 0.00 in0.0 mm
02:40 PM 94.5°F34.7°C 52.2°F11.2°C 24% 6.0 mph SE9.7 kmh SE 9.2 mph14.8 kmh 30.03 in1016.9 mb 0.00 in0.0 mm 0.00 in/hr0.0 mm/hr 0.00 in0.0 mm
02:50 PM 94.8°F34.9°C 46.2°F7.9°C 19% 3.8 mph NE6.1 kmh NE 12.1 mph19.5 kmh 30.02 in1016.6 mb 0.00 in0.0 mm 0.00 in/hr0.0 mm/hr 0.00 in0.0 mm
03:00 PM 94.5°F34.7°C 51.0°F10.6°C 23% 2.2 mph NW3.5 kmh NW 8.3 mph13.4 kmh 30.02 in1016.6 mb 0.00 in0.0 mm 0.00 in/hr0.0 mm/hr 0.00 in0.0 mm
03:10 PM 95.2°F35.1°C 49.2°F9.6°C 21% 1.6 mph NW2.6 kmh NW 6.0 mph9.7 kmh 30.01 in1016.3 mb 0.00 in0.0 mm 0.00 in/hr0.0 mm/hr 0.00 in0.0 mm
03:20 PM 95.7°F35.4°C 48.3°F9.1°C 20% 3.1 mph NNE5.0 kmh NNE 3.8 mph6.1 kmh 30.01 in1016.3 mb 0.00 in0.0 mm 0.00 in/hr0.0 mm/hr 0.00 in0.0 mm
03:30 PM 96.1°F35.6°C 47.2°F8.4°C 19% 5.4 mph ESE8.7 kmh ESE 6.9 mph11.1 kmh 30.00 in1015.9 mb 0.00 in0.0 mm 0.00 in/hr0.0 mm/hr 0.00 in0.0 mm
03:40 PM 95.9°F35.5°C 44.1°F6.7°C 17% 1.6 mph E2.6 kmh E 10.7 mph17.2 kmh 30.00 in1015.9 mb 0.00 in0.0 mm 0.00 in/hr0.0 mm/hr 0.00 in0.0 mm
03:50 PM 94.1°F34.5°C 48.3°F9.1°C 21% 5.4 mph SE8.7 kmh SE 9.2 mph14.8 kmh 30.00 in1015.9 mb 0.00 in0.0 mm 0.00 in/hr0.0 mm/hr 0.00 in0.0 mm
04:00 PM 94.1°F34.5°C 45.6°F7.6°C 19% 2.2 mph SE3.5 kmh SE 9.8 mph15.8 kmh 30.00 in1015.9 mb 0.00 in0.0 mm 0.00 in/hr0.0 mm/hr 0.00 in0.0 mm
04:10 PM 94.1°F34.5°C 41.1°F5.1°C 16% 5.4 mph SE8.7 kmh SE 9.8 mph15.8 kmh 30.00 in1015.9 mb 0.00 in0.0 mm 0.00 in/hr0.0 mm/hr 0.00 in0.0 mm
04:20 PM 94.5°F34.7°C 47.3°F8.5°C 20% 5.4 mph SE8.7 kmh SE 10.7 mph17.2 kmh 30.00 in1015.9 mb 0.00 in0.0 mm 0.00 in/hr0.0 mm/hr 0.00 in0.0 mm
04:30 PM 93.0°F33.9°C 46.1°F7.8°C 20% 7.6 mph SE12.2 kmh SE 10.7 mph17.2 kmh 29.99 in1015.6 mb 0.00 in0.0 mm 0.00 in/hr0.0 mm/hr 0.00 in0.0 mm
04:40 PM 91.2°F32.9°C 45.9°F7.7°C 21% 6.0 mph SE9.7 kmh SE 10.7 mph17.2 kmh 29.99 in1015.6 mb 0.00 in0.0 mm 0.00 in/hr0.0 mm/hr 0.00 in0.0 mm
04:50 PM 90.7°F32.6°C 45.4°F7.4°C 21% 3.8 mph SSE6.1 kmh SSE 7.6 mph12.2 kmh 29.99 in1015.6 mb 0.00 in0.0 mm 0.00 in/hr0.0 mm/hr 0.00 in0.0 mm
05:00 PM 90.7°F32.6°C 45.4°F7.4°C 21% 2.2 mph SE3.5 kmh SE 6.9 mph11.1 kmh 29.99 in1015.6 mb 0.00 in0.0 mm 0.00 in/hr0.0 mm/hr 0.00 in0.0 mm
05:10 PM 92.1°F33.4°C 47.9°F8.8°C 22% 6.0 mph SE9.7 kmh SE 8.3 mph13.4 kmh 29.99 in1015.6 mb 0.00 in0.0 mm 0.00 in/hr0.0 mm/hr 0.00 in0.0 mm
05:20 PM 92.3°F33.5°C 51.5°F10.8°C 25% 2.2 mph NE3.5 kmh NE 7.6 mph12.2 kmh 29.99 in1015.6 mb 0.00 in0.0 mm 0.00 in/hr0.0 mm/hr 0.00 in0.0 mm
05:30 PM 91.2°F32.9°C 47.1°F8.4°C 22% 3.1 mph SE5.0 kmh SE 6.0 mph9.7 kmh 29.99 in1015.6 mb 0.00 in0.0 mm 0.00 in/hr0.0 mm/hr 0.00 in0.0 mm
05:40 PM 90.5°F32.5°C 45.3°F7.4°C 21% 2.2 mph ESE3.5 kmh ESE 4.5 mph7.2 kmh 29.98 in1015.2 mb 0.00 in0.0 mm 0.00 in/hr0.0 mm/hr 0.00 in0.0 mm
05:50 PM 90.5°F32.5°C 44.0°F6.7°C 20% 0.7 mph SSE1.1 kmh SSE 3.8 mph6.1 kmh 29.98 in1015.2 mb 0.00 in0.0 mm 0.00 in/hr0.0 mm/hr 0.00 in0.0 mm
06:00 PM 89.8°F32.1°C 50.4°F10.2°C 26% 1.6 mph ENE2.6 kmh ENE 3.1 mph5.0 kmh 29.98 in1015.2 mb 0.00 in0.0 mm 0.00 in/hr0.0 mm/hr 0.00 in0.0 mm
06:10 PM 89.6°F32.0°C 49.2°F9.6°C 25% 1.6 mph NE2.6 kmh NE 2.2 mph3.5 kmh 29.98 in1015.2 mb 0.00 in0.0 mm 0.00 in/hr0.0 mm/hr 0.00 in0.0 mm
06:20 PM 89.1°F31.7°C 52.7°F11.5°C 29% Calm Calm 2.2 mph3.5 kmh 29.98 in1015.2 mb 0.00 in0.0 mm 0.00 in/hr0.0 mm/hr 0.00 in0.0 mm
06:30 PM 89.1°F31.7°C 51.8°F11.0°C 28% Calm Calm -- 29.98 in1015.2 mb 0.00 in0.0 mm 0.00 in/hr0.0 mm/hr 0.00 in0.0 mm
06:40 PM 89.2°F31.8°C 55.6°F13.1°C 32% Calm Calm -- 29.98 in1015.2 mb 0.00 in0.0 mm 0.00 in/hr0.0 mm/hr 0.00 in0.0 mm
06:50 PM 88.9°F31.6°C 48.6°F9.2°C 25% 0.7 mph NW1.1 kmh NW 1.6 mph2.6 kmh 29.98 in1015.2 mb 0.00 in0.0 mm 0.00 in/hr0.0 mm/hr 0.00 in0.0 mm
07:00 PM 88.2°F31.2°C 48.0°F8.9°C 25% 3.8 mph NNW6.1 kmh NNW 7.6 mph12.2 kmh 29.98 in1015.2 mb 0.00 in0.0 mm 0.00 in/hr0.0 mm/hr 0.00 in0.0 mm
07:10 PM 88.3°F31.3°C 44.7°F7.1°C 22% 6.0 mph N9.7 kmh N 15.2 mph24.5 kmh 29.98 in1015.2 mb 0.00 in0.0 mm 0.00 in/hr0.0 mm/hr 0.00 in0.0 mm
07:20 PM 89.1°F31.7°C 42.8°F6.0°C 20% 8.3 mph N13.4 kmh N 20.6 mph33.2 kmh 29.98 in1015.2 mb 0.00 in0.0 mm 0.00 in/hr0.0 mm/hr 0.00 in0.0 mm
07:30 PM 88.7°F31.5°C 43.8°F6.6°C 21% 5.4 mph NNE8.7 kmh NNE 22.1 mph35.6 kmh 29.98 in1015.2 mb 0.00 in0.0 mm 0.00 in/hr0.0 mm/hr 0.00 in0.0 mm
07:40 PM 87.8°F31.0°C 44.3°F6.8°C 22% 6.0 mph NNE9.7 kmh NNE 9.2 mph14.8 kmh 29.98 in1015.2 mb 0.00 in0.0 mm 0.00 in/hr0.0 mm/hr 0.00 in0.0 mm
07:50 PM 87.1°F30.6°C 44.8°F7.1°C 23% 1.6 mph SE2.6 kmh SE 9.2 mph14.8 kmh 29.99 in1015.6 mb 0.00 in0.0 mm 0.00 in/hr0.0 mm/hr 0.00 in0.0 mm
08:00 PM 85.5°F29.7°C 45.7°F7.6°C 25% 6.0 mph N9.7 kmh N 10.7 mph17.2 kmh 30.00 in1015.9 mb 0.00 in0.0 mm 0.00 in/hr0.0 mm/hr 0.00 in0.0 mm
08:10 PM 85.5°F29.7°C 47.7°F8.7°C 27% 12.1 mph NNE19.5 kmh NNE 17.4 mph28.0 kmh 30.01 in1016.3 mb 0.00 in0.0 mm 0.00 in/hr0.0 mm/hr 0.00 in0.0 mm
08:20 PM 84.9°F29.4°C 49.2°F9.6°C 29% 16.8 mph NE27.0 kmh NE 25.1 mph40.4 kmh 30.00 in1015.9 mb 0.00 in0.0 mm 0.00 in/hr0.0 mm/hr 0.00 in0.0 mm
08:30 PM 84.4°F29.1°C 48.7°F9.3°C 29% 15.2 mph NE24.5 kmh NE 22.8 mph36.7 kmh 30.01 in1016.3 mb 0.00 in0.0 mm 0.00 in/hr0.0 mm/hr 0.00 in0.0 mm
08:40 PM 83.1°F28.4°C 49.4°F9.7°C 31% 13.0 mph NE20.9 kmh NE 22.1 mph35.6 kmh 30.02 in1016.6 mb 0.00 in0.0 mm 0.00 in/hr0.0 mm/hr 0.00 in0.0 mm
08:50 PM 82.6°F28.1°C 49.8°F9.9°C 32% 10.7 mph NE17.2 kmh NE 17.4 mph28.0 kmh 30.02 in1016.6 mb 0.00 in0.0 mm 0.00 in/hr0.0 mm/hr 0.00 in0.0 mm
09:00 PM 82.0°F27.8°C 48.5°F9.2°C 31% 9.8 mph NE15.8 kmh NE 17.4 mph28.0 kmh 30.02 in1016.6 mb 0.00 in0.0 mm 0.00 in/hr0.0 mm/hr 0.00 in0.0 mm
09:10 PM 81.7°F27.6°C 49.0°F9.4°C 32% 5.4 mph NE8.7 kmh NE 17.4 mph28.0 kmh 30.03 in1016.9 mb 0.00 in0.0 mm 0.00 in/hr0.0 mm/hr 0.00 in0.0 mm
09:20 PM 81.3°F27.4°C 48.7°F9.3°C 32% 6.9 mph NE11.1 kmh NE 12.1 mph19.5 kmh 30.03 in1016.9 mb 0.00 in0.0 mm 0.00 in/hr0.0 mm/hr 0.00 in0.0 mm
09:30 PM 80.8°F27.1°C 48.2°F9.0°C 32% 5.4 mph NE8.7 kmh NE 11.4 mph18.3 kmh 30.04 in1017.3 mb 0.00 in0.0 mm 0.00 in/hr0.0 mm/hr 0.00 in0.0 mm
09:40 PM 80.6°F27.0°C 48.1°F8.9°C 32% 5.4 mph NE8.7 kmh NE 9.2 mph14.8 kmh 30.04 in1017.3 mb 0.00 in0.0 mm 0.00 in/hr0.0 mm/hr 0.00 in0.0 mm
09:50 PM 80.6°F27.0°C 48.1°F8.9°C 32% 6.0 mph NE9.7 kmh NE 11.4 mph18.3 kmh 30.04 in1017.3 mb 0.00 in0.0 mm 0.00 in/hr0.0 mm/hr 0.00 in0.0 mm
10:00 PM 80.4°F26.9°C 49.5°F9.7°C 34% 5.4 mph NNE8.7 kmh NNE 10.7 mph17.2 kmh 30.05 in1017.6 mb 0.00 in0.0 mm 0.00 in/hr0.0 mm/hr 0.00 in0.0 mm
10:10 PM 80.4°F26.9°C 49.5°F9.7°C 34% 6.0 mph NE9.7 kmh NE 9.2 mph14.8 kmh 30.05 in1017.6 mb 0.00 in0.0 mm 0.00 in/hr0.0 mm/hr 0.00 in0.0 mm
10:20 PM 80.6°F27.0°C 48.1°F8.9°C 32% 6.0 mph N9.7 kmh N 8.3 mph13.4 kmh 30.05 in1017.6 mb 0.00 in0.0 mm 0.00 in/hr0.0 mm/hr 0.00 in0.0 mm
10:30 PM 80.2°F26.8°C 48.6°F9.2°C 33% 3.8 mph N6.1 kmh N 8.3 mph13.4 kmh 30.06 in1017.9 mb 0.00 in0.0 mm 0.00 in/hr0.0 mm/hr 0.00 in0.0 mm
10:40 PM 79.9°F26.6°C 49.0°F9.4°C 34% 3.1 mph NNE5.0 kmh NNE 7.6 mph12.2 kmh 30.06 in1017.9 mb 0.00 in0.0 mm 0.00 in/hr0.0 mm/hr 0.00 in0.0 mm
10:50 PM 78.6°F25.9°C 50.2°F10.1°C 37% 3.1 mph NE5.0 kmh NE 6.0 mph9.7 kmh 30.05 in1017.6 mb 0.00 in0.0 mm 0.00 in/hr0.0 mm/hr 0.00 in0.0 mm
11:00 PM 77.9°F25.5°C 50.3°F10.2°C 38% 4.5 mph NE7.2 kmh NE 6.0 mph9.7 kmh 30.05 in1017.6 mb 0.00 in0.0 mm 0.00 in/hr0.0 mm/hr 0.00 in0.0 mm
11:10 PM 77.5°F25.3°C 50.0°F10.0°C 38% 3.1 mph NE5.0 kmh NE 6.0 mph9.7 kmh 30.05 in1017.6 mb 0.00 in0.0 mm 0.00 in/hr0.0 mm/hr 0.00 in0.0 mm
11:20 PM 76.8°F24.9°C 50.7°F10.4°C 40% 2.2 mph NE3.5 kmh NE 4.5 mph7.2 kmh 30.05 in1017.6 mb 0.00 in0.0 mm 0.00 in/hr0.0 mm/hr 0.00 in0.0 mm
11:30 PM 76.1°F24.5°C 50.1°F10.1°C 40% 2.2 mph NE3.5 kmh NE 6.9 mph11.1 kmh 30.04 in1017.3 mb 0.00 in0.0 mm 0.00 in/hr0.0 mm/hr 0.00 in0.0 mm
11:40 PM 75.6°F24.2°C 50.2°F10.1°C 41% Calm Calm 3.8 mph6.1 kmh 30.04 in1017.3 mb 0.00 in0.0 mm 0.00 in/hr0.0 mm/hr 0.00 in0.0 mm
11:50 PM 74.8°F23.8°C 50.2°F10.1°C 42% 1.6 mph NW2.6 kmh NW 2.2 mph3.5 kmh 30.05 in1017.6 mb 0.00 in0.0 mm 0.00 in/hr0.0 mm/hr 0.00 in0.0 mm